METAR Data
IDs: Format: Raw Decoded Include TAF

Data at: 1557 UTC 21 Sep 2018

KBUR 211553Z 00000KT 6SM HZ CLR 20/17 A2999 RMK AO2 SLP143 T02000167
KBUR 211453Z 00000KT 6SM HZ CLR 18/17 A2999 RMK AO2 SLP143 T01830167 53014
KBUR 211400Z 00000KT 6SM HZ CLR 17/16 A2997 RMK AO2 T01720161
KBUR 211353Z 00000KT 7SM OVC013 17/16 A2996 RMK AO2 SLP135 T01720161
KBUR 211253Z 00000KT 9SM OVC013 17/16 A2995 RMK AO2 SLP132 T01720161 $
KBUR 211223Z AUTO 00000KT 9SM OVC014 18/17 A2995 RMK AO2 T01780167 $
KBUR 211153Z AUTO 00000KT 7SM OVC016 18/17 A2995 RMK AO2 SLP128 T01780167 10194 20178 53000 $
KBUR 211053Z AUTO 00000KT 8SM OVC015 18/17 A2994 RMK AO2 SLP127 T01780167 $
KBUR 211051Z AUTO 00000KT 8SM OVC015 18/17 A2994 RMK AO2 $
KBUR 210953Z 17003KT 9SM OVC012 18/17 A2995 RMK AO2 SLP128 T01830167 $
KBUR 210853Z 16004KT 9SM OVC012 19/17 A2994 RMK AO2 SLP126 T01890167 58001 $
KBUR 210753Z 13004KT 10SM OVC012 19/17 A2995 RMK AO2 SLP128 T01890167 402940150 $
KBUR 210731Z 13004KT 10SM OVC014 19/17 A2995 RMK AO2 T01890167 $
KBUR 210703Z 13005KT 9SM SCT013 OVC020 19/17 A2994 RMK AO2 T01890167 $
KBUR 210653Z 14006KT 10SM BKN013 OVC020 19/17 A2994 RMK AO2 SLP127 T01890167 $
KBUR 210553Z 13008KT 9SM OVC012 19/17 A2995 RMK AO2 SLP129 T01890172 10267 20189 51020 $
KBUR 210525Z 14006KT 10SM OVC013 19/17 A2994 RMK AO2 T01940172 $
KBUR 210453Z 14008KT 7SM OVC021 19/17 A2993 RMK AO2 SLP123 T01940172 $
KBUR 210353Z COR 17005KT 10SM FEW035 19/17 A2991 RMK AO2 SLP119 T01940172 $
KBUR 210253Z 18006KT 10SM CLR 20/17 A2989 RMK AO2 SLP110 T02000172 53023 $
KBUR 210153Z 17007KT 10SM CLR 22/17 A2985 RMK AO2 SLP098 T02170172 $
KBUR 210053Z 17010KT 10SM CLR 24/17 A2983 RMK AO2 SLP090 T02390172 $
KBUR 202353Z 18009KT 10SM CLR 27/17 A2982 RMK AO2 SLP085 T02670172 10294 20233 58005 $
KBUR 202253Z 19009KT 10SM FEW042 27/17 A2982 RMK AO2 SLP086 T02720172 $
KBUR 202153Z 19008KT 10SM CLR 28/17 A2983 RMK AO2 SLP087 T02780167 $
KBUR 202053Z 19010KT 10SM CLR 28/16 A2983 RMK AO2 SLP089 T02830156 58011 $
KBUR 201953Z 18005KT 10SM CLR 28/15 A2984 RMK AO2 SLP092 T02780150 $
KBUR 201853Z 17006KT 10SM CLR 26/15 A2986 RMK AO2 SLP098 T02610150 $
KBUR 201753Z 16003KT 9SM CLR 23/15 A2986 RMK AO2 SLP100 T02330150 10233 20150 51009 $
KBUR 201653Z 10004KT 7SM CLR 20/15 A2986 RMK AO2 SLP100 T02000150 $
KBUR 201553Z 14004KT 5SM BR CLR 17/16 A2985 RMK AO2 SLP096 T01720161 $
KBUR 201531Z 11006KT 5SM BR CLR 17/15 A2985 RMK AO2 T01720150 $
KBUR 201453Z 15005KT 10SM CLR 16/13 A2983 RMK AO2 SLP091 T01610128 53019 $
KBUR 201353Z 00000KT 10SM CLR 16/12 A2981 RMK AO2 SLP083 T01610117 $
KBUR 201253Z 00000KT 10SM CLR 16/11 A2979 RMK AO2 SLP076 T01610106 $
KBUR 201153Z 00000KT 10SM CLR 16/11 A2978 RMK AO2 SLP071 T01560106 10200 20156 51002 $
KBUR 201053Z AUTO 00000KT 10SM CLR 16/11 A2977 RMK AO2 SLP069 T01610106 $
KBUR 200953Z 00000KT 10SM CLR 17/11 A2978 RMK AO2 SLP071 T01670106 $
KBUR 200853Z 00000KT 10SM CLR 18/12 A2977 RMK AO2 SLP068 T01780122 53004 $
KBUR 200753Z 00000KT 10SM CLR 19/13 A2976 RMK AO2 SLP066 T01890128 402830139 $
KBUR 200653Z 00000KT 10SM CLR 19/13 A2976 RMK AO2 SLP065 T01940133 $
KBUR 200553Z 09006KT 10SM CLR 19/16 A2976 RMK AO2 SLP064 T01940156 10278 20194 50013 $
KBUR 200453Z 12005KT 10SM CLR 20/15 A2976 RMK AO2 SLP066 T02000150 $